Terminal Aerodrome Forecast
Issued by NWS Charleston, WV

Current Version | Previous Version | Graphics & Text | Print | Product List | Glossary On
Versions: 1 2 3 4 5 6 7 8 9 10 11 12 13 14 15 16 17 18 19 20 21 22
000
FTUS41 KRLX 301100
TAFCRW
TAF
KCRW 301132Z 3012/0112 00000KT 1/2SM FG VV001
     FM301300 00000KT 2SM BR BKN002
     FM301400 VRB03KT P6SM SKC
     FM301600 26006KT P6SM FEW045
     FM302300 26004KT P6SM BKN045
     FM010600 00000KT 5SM BR BKN045
     FM010900 00000KT 2SM BR SCT010=

USA.gov is the U.S. government's official web portal to all federal, state and local government web resources and services.